createdAt,value
2022-12-06T00:01:29.329Z,16.35
2022-12-06T00:03:57.748Z,17.90
2022-12-06T00:06:25.659Z,17.20
2022-12-06T00:08:52.507Z,16.48
2022-12-06T00:11:20.170Z,16.45
2022-12-06T00:13:46.844Z,15.13
2022-12-06T00:16:14.471Z,15.88
2022-12-06T00:18:41.561Z,16.67
2022-12-06T00:21:09.619Z,17.65
2022-12-06T00:23:40.010Z,15.80
2022-12-06T00:26:06.697Z,12.60
2022-12-06T00:28:33.175Z,18.73
2022-12-06T00:30:59.841Z,15.55
2022-12-06T00:33:26.679Z,15.45
2022-12-06T00:35:59.893Z,15.18
2022-12-06T00:38:27.696Z,16.35
2022-12-06T00:41:00.940Z,15.23
2022-12-06T00:43:27.804Z,17.30
2022-12-06T00:45:54.110Z,15.60
2022-12-06T00:48:20.492Z,16.52
2022-12-06T00:50:46.807Z,15.75
2022-12-06T00:53:13.309Z,13.30
2022-12-06T00:55:39.688Z,16.13
2022-12-06T00:58:05.894Z,18.17
2022-12-06T01:00:32.162Z,17.45
2022-12-06T01:02:58.598Z,16.67
2022-12-06T01:05:24.932Z,19.55
2022-12-06T01:07:51.195Z,18.75
2022-12-06T01:10:17.688Z,18.75
2022-12-06T01:12:43.919Z,19.20
2022-12-06T01:15:10.395Z,20.70
2022-12-06T01:17:36.664Z,20.25
2022-12-06T01:20:04.066Z,19.80
2022-12-06T01:22:30.416Z,20.35
2022-12-06T01:24:56.659Z,25.38
2022-12-06T01:27:22.869Z,21.92
2022-12-06T01:29:49.385Z,22.70
2022-12-06T01:32:15.604Z,23.30
2022-12-06T01:34:41.879Z,25.00
2022-12-06T01:37:08.136Z,22.23
2022-12-06T01:39:34.337Z,24.83
2022-12-06T01:42:00.666Z,23.83
2022-12-06T01:44:45.945Z,25.80
2022-12-06T01:47:20.508Z,22.33
2022-12-06T01:49:49.255Z,21.67
2022-12-06T01:52:16.275Z,24.50
2022-12-06T01:54:42.670Z,26.77
2022-12-06T01:57:10.955Z,22.65
2022-12-06T01:59:37.327Z,24.48
2022-12-06T02:02:03.573Z,23.08
2022-12-06T02:04:30.454Z,23.60
2022-12-06T02:06:57.426Z,26.95
2022-12-06T02:09:24.298Z,27.35
2022-12-06T02:11:50.581Z,25.92
2022-12-06T02:14:18.417Z,24.63
2022-12-06T02:16:54.716Z,27.00
2022-12-06T02:19:23.946Z,25.60
2022-12-06T02:22:02.371Z,22.35
2022-12-06T02:24:47.230Z,24.10
2022-12-06T02:27:31.765Z,26.10
2022-12-06T02:30:08.860Z,24.35
2022-12-06T02:32:43.968Z,24.40
2022-12-06T02:35:22.067Z,23.13
2022-12-06T02:37:53.290Z,24.33
2022-12-06T02:40:22.247Z,21.08
2022-12-06T02:42:56.564Z,24.40
2022-12-06T02:45:25.556Z,27.15
2022-12-06T02:47:52.363Z,24.02
2022-12-06T02:50:21.403Z,24.10
2022-12-06T02:52:49.522Z,20.25
2022-12-06T02:55:16.573Z,23.67
2022-12-06T02:57:45.163Z,23.40
2022-12-06T03:00:29.964Z,25.75
2022-12-06T03:03:16.749Z,25.17
2022-12-06T03:05:51.889Z,20.45
2022-12-06T03:08:30.501Z,22.65
2022-12-06T03:11:00.349Z,24.88
2022-12-06T03:13:26.509Z,26.23
2022-12-06T03:15:52.749Z,23.25
2022-12-06T03:18:21.799Z,25.02
2022-12-06T03:21:08.254Z,24.48
2022-12-06T03:23:37.112Z,20.00
2022-12-06T03:26:05.254Z,22.67
2022-12-06T03:28:31.863Z,22.45
2022-12-06T03:30:59.714Z,24.83
2022-12-06T03:33:27.241Z,23.10
2022-12-06T03:35:54.155Z,23.45
2022-12-06T03:38:26.612Z,22.52
2022-12-06T03:40:53.982Z,23.23
2022-12-06T03:43:20.204Z,26.55
2022-12-06T03:45:49.709Z,25.42
2022-12-06T03:48:21.522Z,28.17
2022-12-06T03:50:55.416Z,25.55
2022-12-06T03:53:24.673Z,29.42
2022-12-06T03:55:50.913Z,27.85
2022-12-06T03:58:17.276Z,30.52
2022-12-06T04:00:44.479Z,30.70
2022-12-06T04:03:10.658Z,29.13
2022-12-06T04:05:36.863Z,31.00
2022-12-06T04:08:03.389Z,27.85
2022-12-06T04:10:29.678Z,27.88
2022-12-06T04:13:01.974Z,33.20
2022-12-06T04:15:33.054Z,31.10
2022-12-06T04:18:13.206Z,29.27
2022-12-06T04:21:05.331Z,33.38
2022-12-06T04:23:33.391Z,33.88
2022-12-06T04:25:59.647Z,31.02
2022-12-06T04:28:44.559Z,31.45
2022-12-06T04:31:29.663Z,35.15
2022-12-06T04:34:14.418Z,32.05
2022-12-06T04:36:59.524Z,35.95
2022-12-06T04:39:26.246Z,33.42
2022-12-06T04:42:11.358Z,37.40
2022-12-06T04:44:37.620Z,36.10
2022-12-06T04:47:04.041Z,35.88
2022-12-06T04:49:30.350Z,33.95
2022-12-06T04:51:56.633Z,37.47
2022-12-06T04:54:23.366Z,34.95
2022-12-06T04:56:49.625Z,34.85
2022-12-06T04:59:15.919Z,32.78
2022-12-06T05:01:42.111Z,33.63
2022-12-06T05:04:08.387Z,32.40
2022-12-06T05:06:34.755Z,37.28
2022-12-06T05:09:00.989Z,37.75
2022-12-06T05:11:27.374Z,37.28
2022-12-06T05:13:53.574Z,32.58
2022-12-06T05:16:19.827Z,37.80
2022-12-06T05:18:46.071Z,34.38
2022-12-06T05:21:16.817Z,33.80
2022-12-06T05:23:43.361Z,34.75
2022-12-06T05:26:14.182Z,32.78
2022-12-06T05:28:40.493Z,26.85
2022-12-06T05:31:06.797Z,31.33
2022-12-06T05:33:33.016Z,32.78
2022-12-06T05:35:59.309Z,30.27
2022-12-06T05:38:25.547Z,22.63
2022-12-06T05:40:51.753Z,26.40
2022-12-06T05:43:17.965Z,33.50
2022-12-06T05:45:44.328Z,29.25
2022-12-06T05:48:10.571Z,31.83
2022-12-06T05:50:36.808Z,29.30
2022-12-06T05:53:03.173Z,30.65
2022-12-06T05:55:29.433Z,26.48
2022-12-06T05:57:55.657Z,26.73
2022-12-06T06:00:22.036Z,32.05
2022-12-06T06:02:48.424Z,29.13
2022-12-06T06:05:14.776Z,32.67
2022-12-06T06:07:41.044Z,30.63
2022-12-06T06:10:07.510Z,30.77
2022-12-06T06:12:33.745Z,31.33
2022-12-06T06:15:00.026Z,31.15
2022-12-06T06:17:26.246Z,29.02
2022-12-06T06:19:52.729Z,29.48
2022-12-06T06:22:19.885Z,30.58
2022-12-06T06:24:46.096Z,35.28
2022-12-06T06:27:12.367Z,31.23
2022-12-06T06:29:44.939Z,28.33
2022-12-06T06:32:12.608Z,33.35
2022-12-06T06:34:38.937Z,33.30
2022-12-06T06:37:05.238Z,44.50
2022-12-06T06:39:31.434Z,31.45
2022-12-06T06:41:57.665Z,32.08
2022-12-06T06:44:23.906Z,35.10
2022-12-06T06:46:50.120Z,36.70
2022-12-06T06:49:17.543Z,33.53
2022-12-06T06:51:43.728Z,32.17
2022-12-06T06:54:10.163Z,30.05
2022-12-06T06:56:36.558Z,33.88
2022-12-06T06:59:02.911Z,33.03
2022-12-06T07:01:29.468Z,31.40
2022-12-06T07:03:56.109Z,30.48
2022-12-06T07:06:22.362Z,33.05
2022-12-06T07:08:48.650Z,37.10
2022-12-06T07:11:15.497Z,30.52
2022-12-06T07:13:43.857Z,34.42
2022-12-06T07:16:13.638Z,34.08
2022-12-06T07:18:40.139Z,35.30
2022-12-06T07:21:07.461Z,34.83
2022-12-06T07:23:34.630Z,32.78
2022-12-06T07:26:01.834Z,32.75
2022-12-06T07:28:28.074Z,37.50
2022-12-06T07:30:54.322Z,36.47
2022-12-06T07:33:20.586Z,36.22
2022-12-06T07:38:39.944Z,38.65
2022-12-06T07:41:26.393Z,33.65
2022-12-06T07:44:12.721Z,34.63
2022-12-06T07:46:39.084Z,35.70
2022-12-06T07:49:05.652Z,32.10
2022-12-06T07:51:32.249Z,34.40
2022-12-06T07:53:58.525Z,43.53
2022-12-06T07:56:24.803Z,45.42
2022-12-06T07:58:51.159Z,46.63
2022-12-06T08:01:17.450Z,38.88
2022-12-06T08:03:43.709Z,39.72
2022-12-06T08:06:09.943Z,34.97
2022-12-06T08:08:36.334Z,35.90
2022-12-06T08:11:04.355Z,39.78
2022-12-06T08:13:30.553Z,38.67
2022-12-06T08:15:56.795Z,36.08
2022-12-06T08:18:23.238Z,38.28
2022-12-06T08:20:50.307Z,38.42
2022-12-06T08:23:16.491Z,37.22
2022-12-06T08:25:42.672Z,35.90
2022-12-06T08:28:08.924Z,34.40
2022-12-06T08:30:35.288Z,36.85
2022-12-06T08:33:01.559Z,35.67
2022-12-06T08:35:27.763Z,35.05
2022-12-06T08:37:53.966Z,38.13
2022-12-06T08:40:20.187Z,35.72
2022-12-06T08:42:46.812Z,31.27
2022-12-06T08:45:13.013Z,37.15
2022-12-06T08:47:39.233Z,35.63
2022-12-06T08:50:05.850Z,30.33
2022-12-06T08:52:32.046Z,36.15
2022-12-06T08:54:58.282Z,33.78
2022-12-06T08:57:24.514Z,34.45
2022-12-06T08:59:50.799Z,33.35
2022-12-06T09:02:17.265Z,32.78
2022-12-06T09:04:43.588Z,32.38
2022-12-06T09:07:11.892Z,29.88
2022-12-06T09:09:38.394Z,30.23
2022-12-06T09:12:04.653Z,27.38
2022-12-06T09:14:30.912Z,29.95
2022-12-06T09:16:57.256Z,30.10
2022-12-06T09:19:23.533Z,31.50
2022-12-06T09:21:49.788Z,34.85
2022-12-06T09:24:17.388Z,39.10
2022-12-06T09:26:43.678Z,32.42
2022-12-06T09:29:10.402Z,33.88
2022-12-06T09:31:40.270Z,30.20
2022-12-06T09:34:10.569Z,33.72
2022-12-06T09:36:40.094Z,34.80
2022-12-06T09:39:11.024Z,35.28
2022-12-06T09:41:48.567Z,29.77
2022-12-06T09:44:17.937Z,28.77
2022-12-06T09:46:53.167Z,32.00
2022-12-06T09:49:30.377Z,31.65
2022-12-06T09:52:08.895Z,32.60
2022-12-06T09:54:35.137Z,31.42
2022-12-06T09:57:12.574Z,31.17
2022-12-06T09:59:53.826Z,27.80
2022-12-06T10:02:24.792Z,33.53
2022-12-06T10:05:14.873Z,28.20
2022-12-06T10:07:47.820Z,29.65
2022-12-06T10:10:31.874Z,28.25
2022-12-06T10:13:18.663Z,26.23
2022-12-06T10:16:11.167Z,27.05
2022-12-06T10:18:43.484Z,26.25
2022-12-06T10:21:19.985Z,25.67
2022-12-06T10:24:06.896Z,28.48
2022-12-06T10:26:35.827Z,21.92
2022-12-06T10:29:09.673Z,22.80
2022-12-06T10:31:51.069Z,23.52
2022-12-06T10:34:21.737Z,21.90
2022-12-06T10:36:54.090Z,26.67
2022-12-06T10:39:22.928Z,22.83
2022-12-06T10:41:54.675Z,22.27
2022-12-06T10:44:32.344Z,18.10
2022-12-06T10:47:06.153Z,23.90
2022-12-06T10:49:35.628Z,20.38
2022-12-06T10:52:04.902Z,21.05
2022-12-06T10:54:34.201Z,17.40
2022-12-06T10:57:02.083Z,20.73
2022-12-06T10:59:48.690Z,18.92
2022-12-06T11:02:23.688Z,20.95
2022-12-06T11:04:51.383Z,19.45
2022-12-06T11:07:30.827Z,21.90
2022-12-06T11:09:57.831Z,17.52
2022-12-06T11:12:31.445Z,20.30
2022-12-06T11:15:14.635Z,20.00
2022-12-06T11:17:43.320Z,18.17
2022-12-06T11:20:15.342Z,18.73
2022-12-06T11:22:41.547Z,22.40
2022-12-06T11:25:26.548Z,18.65
2022-12-06T11:27:54.308Z,18.77
2022-12-06T11:30:21.433Z,16.25
2022-12-06T11:32:51.142Z,17.38
2022-12-06T11:35:21.268Z,17.45
2022-12-06T11:37:49.770Z,17.15
2022-12-06T11:40:18.971Z,17.90
2022-12-06T11:42:45.217Z,16.75
2022-12-06T11:45:18.223Z,16.52
2022-12-06T11:47:44.974Z,16.48
2022-12-06T11:50:17.176Z,17.45
2022-12-06T11:52:45.330Z,14.60
2022-12-06T11:55:19.376Z,15.88
2022-12-06T11:57:53.274Z,13.63
2022-12-06T12:00:24.382Z,12.75
2022-12-06T12:02:51.583Z,16.23
2022-12-06T12:05:19.945Z,15.13
2022-12-06T12:07:51.812Z,14.82
2022-12-06T12:10:26.305Z,14.77
2022-12-06T12:13:11.734Z,21.95
2022-12-06T12:15:38.686Z,20.02
2022-12-06T12:18:05.443Z,16.27
2022-12-06T12:20:35.250Z,17.27
2022-12-06T12:23:05.868Z,15.60
2022-12-06T12:25:33.615Z,15.10
2022-12-06T12:28:03.973Z,18.48
2022-12-06T12:30:31.347Z,16.75
2022-12-06T12:33:08.999Z,11.75
2022-12-06T12:35:35.163Z,16.67
2022-12-06T12:38:10.222Z,15.43
2022-12-06T12:40:41.406Z,14.10
2022-12-06T12:43:10.636Z,14.70
2022-12-06T12:45:39.598Z,12.82
2022-12-06T12:48:23.470Z,11.65
2022-12-06T12:50:56.961Z,12.68
2022-12-06T12:53:39.876Z,13.85
2022-12-06T12:56:09.557Z,13.75
2022-12-06T12:58:36.460Z,12.10
2022-12-06T13:01:05.743Z,13.18
2022-12-06T13:03:50.573Z,10.35
2022-12-06T13:06:40.492Z,11.13
2022-12-06T13:09:07.630Z,10.40
2022-12-06T13:11:39.038Z,11.10
2022-12-06T13:14:05.389Z,7.80
2022-12-06T13:16:33.797Z,10.65
2022-12-06T13:19:00.039Z,9.95
2022-12-06T13:21:35.015Z,8.13
2022-12-06T13:24:10.051Z,12.85
2022-12-06T13:26:51.236Z,11.02
2022-12-06T13:29:20.510Z,20.58
2022-12-06T13:31:48.382Z,11.68
2022-12-06T13:34:33.365Z,9.38
2022-12-06T13:37:02.738Z,10.77
2022-12-06T13:39:31.737Z,10.55
2022-12-06T13:42:17.635Z,10.88
2022-12-06T13:44:44.040Z,11.43
2022-12-06T13:47:28.787Z,12.50
2022-12-06T13:49:58.778Z,10.55
2022-12-06T13:52:59.796Z,11.80
2022-12-06T13:55:26.138Z,10.30
2022-12-06T13:57:55.510Z,10.25
2022-12-06T14:00:27.841Z,9.88
2022-12-06T14:02:55.587Z,10.68
2022-12-06T14:05:40.434Z,9.93
2022-12-06T14:08:09.697Z,10.60
2022-12-06T14:10:35.926Z,9.23
2022-12-06T14:13:03.359Z,10.13
2022-12-06T14:15:30.698Z,10.93
2022-12-06T14:18:05.602Z,11.35
2022-12-06T14:20:35.832Z,11.27
2022-12-06T14:23:02.158Z,10.65
2022-12-06T14:25:29.560Z,12.05
2022-12-06T14:28:03.744Z,9.10
2022-12-06T14:30:30.043Z,7.63
2022-12-06T14:32:57.311Z,8.20
2022-12-06T14:35:25.600Z,10.90
2022-12-06T14:37:58.945Z,9.88
2022-12-06T14:40:46.018Z,11.63
2022-12-06T14:43:15.650Z,9.18
2022-12-06T14:45:42.538Z,9.25
2022-12-06T14:48:10.687Z,12.75
2022-12-06T14:50:41.634Z,8.23
2022-12-06T14:53:11.550Z,9.68
2022-12-06T14:55:57.238Z,7.30
2022-12-06T14:58:27.781Z,10.15
2022-12-06T15:01:01.606Z,7.67
2022-12-06T15:03:33.880Z,7.50
2022-12-06T15:06:14.556Z,9.05
2022-12-06T15:08:54.882Z,10.75
2022-12-06T15:11:41.793Z,9.10
2022-12-06T15:14:17.375Z,8.77
2022-12-06T15:16:44.758Z,12.68
2022-12-06T15:19:14.954Z,9.98
2022-12-06T15:21:41.349Z,9.75
2022-12-06T15:24:15.130Z,14.13
2022-12-06T15:26:41.343Z,11.27
2022-12-06T15:29:07.530Z,14.40
2022-12-06T15:31:34.796Z,10.60
2022-12-06T15:34:01.142Z,10.88
2022-12-06T15:36:30.949Z,9.45
2022-12-06T15:38:57.539Z,11.80
2022-12-06T15:41:25.908Z,11.35
2022-12-06T15:43:53.399Z,11.30
2022-12-06T15:46:24.367Z,9.43
2022-12-06T15:48:51.239Z,10.55
2022-12-06T15:51:20.936Z,10.05
2022-12-06T15:53:47.903Z,12.93
2022-12-06T15:56:15.581Z,10.65
2022-12-06T15:58:45.624Z,14.75
2022-12-06T16:01:14.928Z,12.50
2022-12-06T16:03:42.264Z,13.68
2022-12-06T16:06:13.038Z,11.48
2022-12-06T16:08:39.241Z,11.05
2022-12-06T16:11:13.016Z,13.57
2022-12-06T16:13:39.358Z,12.45
2022-12-06T16:16:05.785Z,11.77
2022-12-06T16:18:32.056Z,12.80
2022-12-06T16:20:58.539Z,12.32
2022-12-06T16:26:31.311Z,10.98
2022-12-06T16:28:58.047Z,12.60
2022-12-06T16:31:24.715Z,14.02
2022-12-06T16:33:51.115Z,13.05
2022-12-06T16:36:18.767Z,17.70
2022-12-06T16:38:45.051Z,14.73
2022-12-06T16:41:21.977Z,15.65
2022-12-06T16:43:48.554Z,17.52
2022-12-06T16:46:19.418Z,13.82
2022-12-06T16:48:45.690Z,16.73
2022-12-06T16:51:11.869Z,16.30
2022-12-06T16:53:38.059Z,16.58
2022-12-06T16:56:04.433Z,13.07
2022-12-06T16:58:30.669Z,16.35
2022-12-06T17:00:59.122Z,15.43
2022-12-06T17:03:25.430Z,14.15
2022-12-06T17:05:51.665Z,16.67
2022-12-06T17:08:22.079Z,18.27
2022-12-06T17:10:48.637Z,12.52
2022-12-06T17:13:14.847Z,14.77
2022-12-06T17:15:41.041Z,15.20
2022-12-06T17:18:07.292Z,16.67
2022-12-06T17:20:33.497Z,15.32
2022-12-06T17:23:00.419Z,16.00
2022-12-06T17:25:26.646Z,15.75
2022-12-06T17:27:53.114Z,18.13
2022-12-06T17:30:19.895Z,18.50
2022-12-06T17:32:47.151Z,16.73
2022-12-06T17:35:14.094Z,18.35
2022-12-06T17:37:40.287Z,18.85
2022-12-06T17:40:06.943Z,17.25
2022-12-06T17:42:52.061Z,16.63
2022-12-06T17:45:23.290Z,17.92
2022-12-06T17:47:50.999Z,18.10
2022-12-06T17:50:17.267Z,17.15
2022-12-06T17:52:43.477Z,15.68
2022-12-06T17:55:12.386Z,16.52
2022-12-06T17:57:38.624Z,17.33
2022-12-06T18:00:05.450Z,14.45
2022-12-06T18:02:31.798Z,16.48
2022-12-06T18:04:58.307Z,15.68
2022-12-06T18:07:24.541Z,15.52
2022-12-06T18:09:50.779Z,15.32
2022-12-06T18:12:17.105Z,19.30
2022-12-06T18:14:43.702Z,17.35
2022-12-06T18:17:09.983Z,19.08
2022-12-06T18:19:36.404Z,16.00
2022-12-06T18:22:03.205Z,16.90
2022-12-06T18:24:35.633Z,17.17
2022-12-06T18:27:03.066Z,17.58
2022-12-06T18:29:29.305Z,18.70
2022-12-06T18:31:55.631Z,18.10
2022-12-06T18:34:22.570Z,18.73
2022-12-06T18:36:48.821Z,17.73
2022-12-06T18:39:16.503Z,13.80
2022-12-06T18:41:43.748Z,19.77
2022-12-06T18:44:10.677Z,18.27
2022-12-06T18:46:38.592Z,18.13
2022-12-06T18:49:05.136Z,17.58
2022-12-06T18:51:33.015Z,15.40
2022-12-06T18:54:00.704Z,18.15
2022-12-06T18:56:27.291Z,18.25
2022-12-06T18:58:53.751Z,17.02
2022-12-06T19:01:24.467Z,17.65
2022-12-06T19:03:51.164Z,17.60
2022-12-06T19:06:18.935Z,19.02
2022-12-06T19:08:45.766Z,17.48
2022-12-06T19:11:19.540Z,16.23
2022-12-06T19:13:55.995Z,18.65
2022-12-06T19:16:25.893Z,17.13
2022-12-06T19:18:53.073Z,17.17
2022-12-06T19:21:19.337Z,20.00
2022-12-06T19:23:45.591Z,15.40
2022-12-06T19:26:12.080Z,21.30
2022-12-06T19:28:39.300Z,17.83
2022-12-06T19:31:07.612Z,16.30
2022-12-06T19:33:35.113Z,17.10
2022-12-06T19:36:02.634Z,20.08
2022-12-06T19:38:29.270Z,19.10
2022-12-06T19:40:55.777Z,16.35
2022-12-06T19:43:45.175Z,18.85
2022-12-06T19:46:13.462Z,17.58
2022-12-06T19:48:39.802Z,17.20
2022-12-06T19:51:06.337Z,17.75
2022-12-06T19:53:33.605Z,17.25
2022-12-06T19:55:59.862Z,18.77
2022-12-06T19:58:26.095Z,16.95
2022-12-06T20:00:52.405Z,20.70
2022-12-06T20:03:18.597Z,22.50
2022-12-06T20:05:44.857Z,18.88
2022-12-06T20:08:11.160Z,22.70
2022-12-06T20:10:38.106Z,20.02
2022-12-06T20:13:06.059Z,19.52
2022-12-06T20:15:32.943Z,19.67
2022-12-06T20:17:59.234Z,18.73
2022-12-06T20:20:25.631Z,19.15
2022-12-06T20:22:51.896Z,19.88
2022-12-06T20:25:18.217Z,19.17
2022-12-06T20:27:54.248Z,18.73
2022-12-06T20:30:22.285Z,22.77
2022-12-06T20:32:48.788Z,18.05
2022-12-06T20:35:15.450Z,21.02
2022-12-06T20:37:41.795Z,23.00
2022-12-06T20:40:08.529Z,23.25
2022-12-06T20:42:34.942Z,23.48
2022-12-06T20:45:01.224Z,19.38
2022-12-06T20:47:27.864Z,19.00
2022-12-06T20:49:54.225Z,20.58
2022-12-06T20:52:20.432Z,17.30
2022-12-06T20:54:46.869Z,21.77
2022-12-06T20:57:13.086Z,23.33
2022-12-06T20:59:39.337Z,22.20
2022-12-06T21:02:05.877Z,22.90
2022-12-06T21:04:32.198Z,20.77
2022-12-06T21:06:58.485Z,22.23
2022-12-06T21:09:24.750Z,23.67
2022-12-06T21:11:51.030Z,21.27
2022-12-06T21:14:17.733Z,21.15
2022-12-06T21:16:44.005Z,25.25
2022-12-06T21:19:12.524Z,20.70
2022-12-06T21:21:40.029Z,22.55
2022-12-06T21:24:09.510Z,24.60
2022-12-06T21:26:35.863Z,21.83
2022-12-06T21:29:02.383Z,24.27
2022-12-06T21:31:29.567Z,26.90
2022-12-06T21:33:56.139Z,24.02
2022-12-06T21:36:23.083Z,24.30
2022-12-06T21:38:49.336Z,24.25
2022-12-06T21:41:15.547Z,25.65
2022-12-06T21:43:41.850Z,24.52
2022-12-06T21:46:10.152Z,23.77
2022-12-06T21:48:36.495Z,28.17
2022-12-06T21:51:04.446Z,27.25
2022-12-06T21:53:30.861Z,26.10
2022-12-06T21:55:57.233Z,26.23
2022-12-06T21:58:23.811Z,28.90
2022-12-06T22:00:50.453Z,24.92
2022-12-06T22:03:22.743Z,26.40
2022-12-06T22:05:49.630Z,25.40
2022-12-06T22:08:15.989Z,28.10
2022-12-06T22:10:42.444Z,26.30
2022-12-06T22:13:08.828Z,24.40
2022-12-06T22:15:35.255Z,25.95
2022-12-06T22:18:01.614Z,33.72
2022-12-06T22:20:27.859Z,27.80
2022-12-06T22:22:54.203Z,27.23
2022-12-06T22:25:20.484Z,26.33
2022-12-06T22:27:46.708Z,28.75
2022-12-06T22:30:13.290Z,26.52
2022-12-06T22:32:39.541Z,26.02
2022-12-06T22:35:06.097Z,27.25
2022-12-06T22:37:32.362Z,27.38
2022-12-06T22:39:58.761Z,34.08
2022-12-06T22:42:25.229Z,29.42
2022-12-06T22:44:51.520Z,30.23
2022-12-06T22:47:18.014Z,27.15
2022-12-06T22:49:44.303Z,28.25
2022-12-06T22:52:10.555Z,30.00
2022-12-06T22:54:36.824Z,28.67
2022-12-06T22:57:03.237Z,29.05
2022-12-06T22:59:29.434Z,28.45
2022-12-06T23:01:55.713Z,28.65
2022-12-06T23:04:22.307Z,30.15
2022-12-06T23:06:48.655Z,31.88
2022-12-06T23:09:15.755Z,31.05
2022-12-06T23:11:42.304Z,32.00
2022-12-06T23:14:08.787Z,34.83
2022-12-06T23:16:35.675Z,32.10
2022-12-06T23:19:02.503Z,35.30
2022-12-06T23:21:30.022Z,32.78
2022-12-06T23:23:57.525Z,33.00
2022-12-06T23:26:25.420Z,34.95
2022-12-06T23:28:52.007Z,38.92
2022-12-06T23:31:19.784Z,36.03
2022-12-06T23:33:46.115Z,38.80
2022-12-06T23:36:13.638Z,38.22
2022-12-06T23:38:40.294Z,35.95
2022-12-06T23:41:13.559Z,36.88
2022-12-06T23:43:40.036Z,38.78
2022-12-06T23:46:07.829Z,35.95
2022-12-06T23:48:34.781Z,35.03
2022-12-06T23:51:07.015Z,39.38
2022-12-06T23:53:33.692Z,36.15
2022-12-06T23:56:01.024Z,35.38
2022-12-06T23:58:28.506Z,33.00
